createdAt,value
2023-04-09T00:01:08.814Z,58.29
2023-04-09T00:04:10.600Z,58.09
2023-04-09T00:07:12.103Z,58.22
2023-04-09T00:10:13.639Z,58.51
2023-04-09T00:13:16.967Z,59.22
2023-04-09T00:16:21.818Z,58.49
2023-04-09T00:19:23.335Z,58.73
2023-04-09T00:22:24.913Z,59.50
2023-04-09T00:25:26.479Z,59.32
2023-04-09T00:28:27.972Z,59.27
2023-04-09T00:31:29.438Z,59.02
2023-04-09T00:34:31.230Z,59.32
2023-04-09T00:37:32.705Z,59.55
2023-04-09T00:40:34.148Z,59.31
2023-04-09T00:43:35.703Z,59.74
2023-04-09T00:46:37.962Z,58.43
2023-04-09T00:49:39.563Z,57.40
2023-04-09T00:52:41.090Z,57.02
2023-04-09T00:55:42.638Z,57.36
2023-04-09T00:58:44.316Z,57.07
2023-04-09T01:01:45.956Z,57.58
2023-04-09T01:04:47.904Z,57.52
2023-04-09T01:08:15.982Z,57.26
2023-04-09T01:11:44.448Z,57.13
2023-04-09T01:14:56.970Z,57.08
2023-04-09T01:18:24.466Z,56.80
2023-04-09T01:21:31.262Z,57.15
2023-04-09T01:25:01.037Z,56.46
2023-04-09T01:28:20.883Z,56.69
2023-04-09T01:31:34.117Z,57.35
2023-04-09T01:34:36.566Z,57.59
2023-04-09T01:37:40.092Z,57.48
2023-04-09T01:40:42.905Z,57.28
2023-04-09T01:43:45.742Z,57.55
2023-04-09T01:46:48.590Z,57.42
2023-04-09T01:49:51.578Z,56.89
2023-04-09T01:52:53.465Z,57.54
2023-04-09T01:55:56.659Z,57.25
2023-04-09T01:58:58.098Z,57.62
2023-04-09T02:02:11.282Z,57.05
2023-04-09T02:05:17.961Z,56.52
2023-04-09T02:08:21.488Z,56.01
2023-04-09T02:11:23.880Z,56.28
2023-04-09T02:14:26.550Z,56.46
2023-04-09T02:17:28.116Z,56.79
2023-04-09T02:20:29.622Z,56.92
2023-04-09T02:23:33.210Z,56.41
2023-04-09T02:26:34.689Z,56.07
2023-04-09T02:29:36.191Z,56.61
2023-04-09T02:32:37.829Z,57.02
2023-04-09T02:35:39.357Z,57.00
2023-04-09T02:38:42.003Z,56.89
2023-04-09T02:41:44.013Z,56.82
2023-04-09T02:44:45.467Z,56.83
2023-04-09T02:47:48.339Z,56.65
2023-04-09T02:50:50.037Z,57.02
2023-04-09T02:53:51.541Z,56.59
2023-04-09T02:56:53.027Z,58.13
2023-04-09T02:59:54.501Z,57.85
2023-04-09T03:02:56.350Z,57.97
2023-04-09T03:05:57.925Z,57.36
2023-04-09T03:08:59.509Z,57.98
2023-04-09T03:12:01.941Z,57.58
2023-04-09T03:15:04.560Z,57.41
2023-04-09T03:18:06.015Z,57.23
2023-04-09T03:21:08.297Z,57.67
2023-04-09T03:24:12.706Z,57.38
2023-04-09T03:27:14.920Z,58.01
2023-04-09T03:30:16.781Z,56.26
2023-04-09T03:33:20.249Z,55.80
2023-04-09T03:36:31.176Z,56.22
2023-04-09T03:39:44.350Z,56.33
2023-04-09T03:42:45.878Z,56.37
2023-04-09T03:45:50.500Z,56.50
2023-04-09T03:48:57.324Z,56.16
2023-04-09T03:52:07.197Z,55.82
2023-04-09T03:55:12.617Z,55.36
2023-04-09T03:58:14.269Z,55.30
2023-04-09T04:01:16.168Z,55.74
2023-04-09T04:04:28.329Z,55.80
2023-04-09T04:07:32.806Z,55.67
2023-04-09T04:10:40.717Z,55.89
2023-04-09T04:13:42.738Z,55.63
2023-04-09T04:16:45.133Z,55.07
2023-04-09T04:19:50.715Z,55.38
2023-04-09T04:22:52.314Z,55.45
2023-04-09T04:25:54.144Z,55.26
2023-04-09T04:29:03.054Z,55.52
2023-04-09T04:32:21.449Z,55.48
2023-04-09T04:35:23.676Z,55.29
2023-04-09T04:38:28.861Z,55.52
2023-04-09T04:41:32.172Z,55.64
2023-04-09T04:44:45.121Z,55.96
2023-04-09T04:47:56.207Z,56.00
2023-04-09T04:50:59.867Z,56.11
2023-04-09T04:54:06.704Z,56.06
2023-04-09T04:57:08.295Z,56.24
2023-04-09T05:00:15.176Z,56.42
2023-04-09T05:03:16.938Z,56.82
2023-04-09T05:06:35.355Z,56.31
2023-04-09T05:09:42.934Z,56.35
2023-04-09T05:12:44.563Z,56.02
2023-04-09T05:15:49.060Z,55.68
2023-04-09T05:18:51.203Z,56.19
2023-04-09T05:21:52.944Z,55.74
2023-04-09T05:24:56.971Z,55.74
2023-04-09T05:27:59.269Z,55.49
2023-04-09T05:31:01.604Z,55.50
2023-04-09T05:34:05.329Z,55.42
2023-04-09T05:37:14.410Z,55.05
2023-04-09T05:40:19.803Z,55.54
2023-04-09T05:43:21.996Z,55.32
2023-04-09T05:46:23.548Z,55.53
2023-04-09T05:49:25.810Z,55.17
2023-04-09T05:52:29.539Z,55.35
2023-04-09T05:55:32.402Z,55.28
2023-04-09T05:58:36.192Z,54.41
2023-04-09T06:01:37.769Z,54.50
2023-04-09T06:04:39.297Z,54.20
2023-04-09T06:07:40.881Z,54.33
2023-04-09T06:10:42.375Z,54.18
2023-04-09T06:13:43.990Z,53.70
2023-04-09T06:16:45.468Z,54.06
2023-04-09T06:19:47.497Z,53.26
2023-04-09T06:22:48.961Z,53.62
2023-04-09T06:25:50.430Z,52.95
2023-04-09T06:28:52.334Z,52.18
2023-04-09T06:31:54.064Z,52.34
2023-04-09T06:34:55.714Z,51.90
2023-04-09T06:37:57.193Z,52.03
2023-04-09T06:40:58.741Z,52.55
2023-04-09T06:44:00.622Z,52.51
2023-04-09T06:47:02.302Z,52.33
2023-04-09T06:50:04.164Z,52.00
2023-04-09T06:53:06.954Z,51.89
2023-04-09T06:56:08.546Z,52.35
2023-04-09T06:59:10.051Z,53.01
2023-04-09T07:02:11.958Z,53.00
2023-04-09T07:05:13.575Z,52.50
2023-04-09T07:08:15.271Z,52.60
2023-04-09T07:11:17.290Z,52.13
2023-04-09T07:14:18.918Z,52.03
2023-04-09T07:17:20.506Z,51.32
2023-04-09T07:20:22.018Z,51.18
2023-04-09T07:23:23.541Z,51.39
2023-04-09T07:26:25.022Z,51.22
2023-04-09T07:29:27.360Z,51.09
2023-04-09T07:32:29.339Z,50.56
2023-04-09T07:35:31.993Z,50.31
2023-04-09T07:38:33.522Z,50.12
2023-04-09T07:41:35.007Z,49.73
2023-04-09T07:44:36.728Z,49.57
2023-04-09T07:47:39.476Z,49.19
2023-04-09T07:50:40.931Z,48.94
2023-04-09T07:53:42.349Z,49.01
2023-04-09T07:56:43.880Z,48.64
2023-04-09T07:59:45.478Z,48.32
2023-04-09T08:02:47.176Z,48.18
2023-04-09T08:05:48.842Z,47.79
2023-04-09T08:08:50.862Z,47.59
2023-04-09T08:11:53.226Z,47.22
2023-04-09T08:14:54.747Z,47.00
2023-04-09T08:17:57.001Z,46.74
2023-04-09T08:20:58.552Z,45.88
2023-04-09T08:24:04.337Z,45.30
2023-04-09T08:27:05.792Z,45.14
2023-04-09T08:30:07.818Z,44.67
2023-04-09T08:33:09.648Z,44.42
2023-04-09T08:36:11.770Z,44.26
2023-04-09T08:39:13.300Z,44.08
2023-04-09T08:42:16.022Z,43.64
2023-04-09T08:45:17.561Z,43.24
2023-04-09T08:48:20.389Z,42.77
2023-04-09T08:51:24.013Z,42.58
2023-04-09T08:54:26.813Z,42.57
2023-04-09T08:57:28.396Z,42.14
2023-04-09T09:00:29.964Z,41.86
2023-04-09T09:03:31.524Z,41.84
2023-04-09T09:06:35.594Z,41.16
2023-04-09T09:09:53.946Z,41.35
2023-04-09T09:12:55.477Z,40.89
2023-04-09T09:16:15.132Z,41.08
2023-04-09T09:19:26.036Z,40.47
2023-04-09T09:22:27.582Z,40.17
2023-04-09T09:25:30.676Z,40.16
2023-04-09T09:28:36.090Z,39.81
2023-04-09T09:31:49.111Z,39.95
2023-04-09T09:35:07.514Z,39.80
2023-04-09T09:38:09.031Z,39.11
2023-04-09T09:41:20.604Z,38.42
2023-04-09T09:44:32.947Z,38.79
2023-04-09T09:47:34.716Z,38.49
2023-04-09T09:50:39.308Z,37.92
2023-04-09T09:53:45.868Z,37.93
2023-04-09T09:56:52.569Z,37.54
2023-04-09T10:00:00.660Z,37.38
2023-04-09T10:03:16.022Z,37.75
2023-04-09T10:06:18.368Z,36.91
2023-04-09T10:09:21.968Z,37.06
2023-04-09T10:12:25.044Z,36.75
2023-04-09T10:15:29.520Z,36.32
2023-04-09T10:18:33.496Z,36.53
2023-04-09T10:21:53.699Z,36.48
2023-04-09T10:24:55.817Z,37.09
2023-04-09T10:28:02.130Z,37.33
2023-04-09T10:31:05.551Z,37.13
2023-04-09T10:34:08.263Z,36.90
2023-04-09T10:37:22.834Z,35.75
2023-04-09T10:40:24.359Z,36.99
2023-04-09T10:43:25.796Z,36.53
2023-04-09T10:46:34.742Z,36.48
2023-04-09T10:49:38.498Z,36.51
2023-04-09T10:52:41.658Z,36.49
2023-04-09T10:55:50.221Z,35.92
2023-04-09T10:58:51.965Z,35.57
2023-04-09T11:01:54.666Z,35.41
2023-04-09T11:05:30.090Z,35.71
2023-04-09T11:08:33.370Z,35.93
2023-04-09T11:11:36.442Z,36.12
2023-04-09T11:14:37.872Z,35.90
2023-04-09T11:17:39.429Z,35.52
2023-04-09T11:20:41.366Z,35.47
2023-04-09T11:23:51.845Z,34.33
2023-04-09T11:26:54.771Z,35.29
2023-04-09T11:29:56.643Z,35.04
2023-04-09T11:32:58.108Z,35.48
2023-04-09T11:35:59.753Z,35.48
2023-04-09T11:39:02.400Z,35.05
2023-04-09T11:42:03.890Z,34.82
2023-04-09T11:45:05.989Z,35.08
2023-04-09T11:48:07.641Z,35.16
2023-04-09T11:51:09.282Z,34.73
2023-04-09T11:54:12.167Z,34.59
2023-04-09T11:57:13.640Z,34.40
2023-04-09T12:00:17.408Z,34.75
2023-04-09T12:03:19.293Z,34.76
2023-04-09T12:06:25.282Z,34.68
2023-04-09T12:09:26.862Z,34.60
2023-04-09T12:12:28.314Z,34.25
2023-04-09T12:15:34.659Z,34.47
2023-04-09T12:18:37.993Z,34.17
2023-04-09T12:21:51.924Z,34.14
2023-04-09T12:24:55.037Z,33.43
2023-04-09T12:27:56.757Z,33.22
2023-04-09T12:30:59.496Z,32.94
2023-04-09T12:34:01.182Z,33.71
2023-04-09T12:37:02.658Z,33.46
2023-04-09T12:40:04.495Z,33.42
2023-04-09T12:43:06.245Z,32.82
2023-04-09T12:46:08.207Z,33.50
2023-04-09T12:49:09.678Z,33.83
2023-04-09T12:52:11.158Z,33.17
2023-04-09T12:55:14.257Z,32.90
2023-04-09T12:58:15.884Z,33.33
2023-04-09T13:01:17.981Z,33.23
2023-04-09T13:04:19.570Z,33.23
2023-04-09T13:07:21.160Z,32.98
2023-04-09T13:10:22.687Z,33.03
2023-04-09T13:13:25.013Z,32.95
2023-04-09T13:16:26.863Z,32.90
2023-04-09T13:19:28.419Z,32.76
2023-04-09T13:22:29.902Z,32.73
2023-04-09T13:25:31.382Z,32.28
2023-04-09T13:28:33.216Z,32.86
2023-04-09T13:31:37.954Z,32.81
2023-04-09T13:34:39.882Z,32.17
2023-04-09T13:37:41.955Z,32.56
2023-04-09T13:40:44.226Z,32.07
2023-04-09T13:43:45.746Z,32.36
2023-04-09T13:46:47.272Z,32.10
2023-04-09T13:49:48.746Z,32.04
2023-04-09T13:52:50.405Z,31.94
2023-04-09T13:55:51.857Z,32.46
2023-04-09T13:58:53.441Z,31.93
2023-04-09T14:01:55.699Z,31.86
2023-04-09T14:04:57.240Z,31.76
2023-04-09T14:07:58.934Z,32.24
2023-04-09T14:11:00.740Z,31.91
2023-04-09T14:14:02.380Z,31.94
2023-04-09T14:17:03.839Z,31.58
2023-04-09T14:20:05.963Z,31.78
2023-04-09T14:23:07.496Z,31.27
2023-04-09T14:26:08.969Z,31.28
2023-04-09T14:29:10.860Z,31.47
2023-04-09T14:32:12.309Z,31.77
2023-04-09T14:35:13.874Z,31.63
2023-04-09T14:38:15.367Z,31.34
2023-04-09T14:41:17.006Z,31.18
2023-04-09T14:44:18.451Z,31.21
2023-04-09T14:47:20.045Z,30.69
2023-04-09T14:50:21.555Z,30.99
2023-04-09T14:53:23.420Z,30.62
2023-04-09T14:56:27.736Z,30.41
2023-04-09T14:59:29.218Z,29.95
2023-04-09T15:02:30.888Z,30.31
2023-04-09T15:05:32.527Z,30.23
2023-04-09T15:08:34.042Z,29.93
2023-04-09T15:11:35.512Z,30.20
2023-04-09T15:14:36.968Z,30.44
2023-04-09T15:17:38.486Z,29.86
2023-04-09T15:20:40.380Z,30.36
2023-04-09T15:23:41.860Z,30.61
2023-04-09T15:26:43.410Z,30.52
2023-04-09T15:29:45.063Z,30.05
2023-04-09T15:32:46.571Z,29.75
2023-04-09T15:35:48.116Z,30.17
2023-04-09T15:38:53.922Z,30.21
2023-04-09T15:41:59.020Z,30.48
2023-04-09T15:45:00.521Z,30.11
2023-04-09T15:48:02.066Z,29.96
2023-04-09T15:51:04.938Z,26.46
2023-04-09T15:54:06.374Z,23.49
2023-04-09T15:57:07.881Z,21.43
2023-04-09T16:00:10.715Z,19.70
2023-04-09T16:03:12.782Z,18.93
2023-04-09T16:06:14.430Z,18.50
2023-04-09T16:09:16.161Z,18.02
2023-04-09T16:12:17.592Z,18.27
2023-04-09T16:15:19.041Z,18.62
2023-04-09T16:18:20.652Z,18.41
2023-04-09T16:21:22.353Z,18.69
2023-04-09T16:24:23.795Z,18.25
2023-04-09T16:27:25.362Z,18.71
2023-04-09T16:30:26.940Z,18.39
2023-04-09T16:33:28.468Z,18.74
2023-04-09T16:36:31.517Z,18.83
2023-04-09T16:39:33.091Z,19.06
2023-04-09T16:42:34.640Z,18.85
2023-04-09T16:45:36.226Z,18.68
2023-04-09T16:48:41.623Z,18.90
2023-04-09T16:51:43.279Z,19.13
2023-04-09T16:54:44.811Z,18.81
2023-04-09T16:57:46.338Z,18.83
2023-04-09T17:00:48.772Z,18.56
2023-04-09T17:03:52.184Z,18.83
2023-04-09T17:06:53.751Z,19.00
2023-04-09T17:09:55.410Z,19.55
2023-04-09T17:12:56.881Z,19.39
2023-04-09T17:15:58.570Z,20.01
2023-04-09T17:19:00.117Z,20.10
2023-04-09T17:22:01.641Z,20.67
2023-04-09T17:25:04.748Z,20.63
2023-04-09T17:28:06.911Z,21.57
2023-04-09T17:31:13.279Z,22.31
2023-04-09T17:34:16.264Z,22.63
2023-04-09T17:37:17.706Z,22.96
2023-04-09T17:40:20.050Z,23.97
2023-04-09T17:43:21.492Z,26.50
2023-04-09T17:46:23.760Z,30.09
2023-04-09T17:49:25.318Z,29.51
2023-04-09T17:52:26.836Z,29.98
2023-04-09T17:55:28.358Z,30.42
2023-04-09T17:58:29.987Z,31.39
2023-04-09T18:01:31.527Z,32.98
2023-04-09T18:04:33.910Z,33.32
2023-04-09T18:07:35.882Z,33.59
2023-04-09T18:10:37.377Z,34.09
2023-04-09T18:13:38.998Z,34.40
2023-04-09T18:16:41.241Z,34.49
2023-04-09T18:19:42.826Z,34.70
2023-04-09T18:22:44.297Z,35.24
2023-04-09T18:25:45.989Z,35.19
2023-04-09T18:28:47.489Z,35.53
2023-04-09T18:31:49.070Z,35.58
2023-04-09T18:34:51.981Z,36.55
2023-04-09T18:37:53.490Z,36.91
2023-04-09T18:40:56.457Z,37.84
2023-04-09T18:43:57.966Z,38.20
2023-04-09T18:47:00.014Z,38.69
2023-04-09T18:50:02.383Z,39.30
2023-04-09T18:53:05.543Z,39.76
2023-04-09T18:56:07.236Z,40.07
2023-04-09T18:59:08.730Z,40.17
2023-04-09T19:02:10.706Z,40.33
2023-04-09T19:05:12.363Z,40.84
2023-04-09T19:08:14.110Z,40.86
2023-04-09T19:11:16.152Z,41.05
2023-04-09T19:14:17.632Z,41.74
2023-04-09T19:17:19.207Z,42.24
2023-04-09T19:20:20.968Z,42.10
2023-04-09T19:23:22.390Z,41.98
2023-04-09T19:26:23.932Z,42.34
2023-04-09T19:29:25.469Z,42.73
2023-04-09T19:32:27.087Z,43.08
2023-04-09T19:35:28.784Z,43.41
2023-04-09T19:38:30.246Z,43.61
2023-04-09T19:41:31.813Z,43.47
2023-04-09T19:44:33.306Z,43.67
2023-04-09T19:47:34.945Z,43.79
2023-04-09T19:50:37.942Z,44.03
2023-04-09T19:53:40.033Z,44.16
2023-04-09T19:56:42.437Z,44.33
2023-04-09T19:59:43.892Z,44.67
2023-04-09T20:02:45.618Z,44.70
2023-04-09T20:05:47.737Z,44.66
2023-04-09T20:08:49.543Z,45.08
2023-04-09T20:11:51.236Z,45.25
2023-04-09T20:14:52.712Z,45.39
2023-04-09T20:17:54.245Z,45.59
2023-04-09T20:20:55.913Z,45.93
2023-04-09T20:23:57.340Z,46.07
2023-04-09T20:26:59.630Z,46.17
2023-04-09T20:30:02.062Z,45.98
2023-04-09T20:33:03.630Z,46.16
2023-04-09T20:36:14.470Z,46.63
2023-04-09T20:39:16.261Z,46.81
2023-04-09T20:42:17.741Z,46.01
2023-04-09T20:45:19.262Z,45.82
2023-04-09T20:48:20.932Z,46.11
2023-04-09T20:51:22.872Z,46.00
2023-04-09T20:54:24.352Z,46.64
2023-04-09T20:57:25.929Z,46.88
2023-04-09T21:00:27.491Z,46.81
2023-04-09T21:03:29.813Z,46.99
2023-04-09T21:06:31.711Z,46.90
2023-04-09T21:09:34.080Z,46.90
2023-04-09T21:12:35.657Z,47.24
2023-04-09T21:15:37.174Z,47.58
2023-04-09T21:18:38.736Z,48.09
2023-04-09T21:21:40.364Z,47.69
2023-04-09T21:24:41.844Z,47.96
2023-04-09T21:27:43.327Z,48.30
2023-04-09T21:30:44.777Z,48.19
2023-04-09T21:33:46.396Z,47.93
2023-04-09T21:36:48.542Z,47.96
2023-04-09T21:39:50.110Z,48.33
2023-04-09T21:42:52.025Z,48.21
2023-04-09T21:45:53.697Z,48.33
2023-04-09T21:48:55.261Z,48.28
2023-04-09T21:51:59.151Z,48.07
2023-04-09T21:55:00.882Z,47.77
2023-04-09T21:58:03.471Z,48.17
2023-04-09T22:01:07.463Z,48.35
2023-04-09T22:04:13.583Z,48.03
2023-04-09T22:07:15.297Z,48.00
2023-04-09T22:10:16.870Z,47.86
2023-04-09T22:13:18.278Z,48.32
2023-04-09T22:16:19.904Z,48.11
2023-04-09T22:19:21.634Z,48.32
2023-04-09T22:22:23.121Z,47.91
2023-04-09T22:25:24.882Z,47.97
2023-04-09T22:28:26.381Z,48.17
2023-04-09T22:31:27.886Z,48.01
2023-04-09T22:34:29.357Z,48.00
2023-04-09T22:37:30.856Z,48.68
2023-04-09T22:40:32.330Z,48.83
2023-04-09T22:43:33.772Z,48.45
2023-04-09T22:46:36.055Z,48.51
2023-04-09T22:49:37.513Z,48.44
2023-04-09T22:52:38.945Z,48.88
2023-04-09T22:55:40.564Z,48.55
2023-04-09T22:58:42.133Z,48.52
2023-04-09T23:01:43.718Z,47.99
2023-04-09T23:04:45.445Z,48.64
2023-04-09T23:07:47.052Z,48.57
2023-04-09T23:10:48.534Z,48.65
2023-04-09T23:13:50.003Z,48.38
2023-04-09T23:16:51.464Z,49.14
2023-04-09T23:19:52.936Z,49.31
2023-04-09T23:22:54.429Z,49.28
2023-04-09T23:25:55.936Z,50.05
2023-04-09T23:28:57.429Z,49.97
2023-04-09T23:31:59.210Z,49.98
2023-04-09T23:35:01.693Z,50.55
2023-04-09T23:38:03.215Z,50.40
2023-04-09T23:41:04.895Z,50.81
2023-04-09T23:44:06.344Z,51.55
2023-04-09T23:47:07.918Z,51.49
2023-04-09T23:50:09.902Z,51.48
2023-04-09T23:53:11.657Z,51.54
2023-04-09T23:56:16.168Z,51.63
2023-04-09T23:59:17.660Z,51.50
